EJU82PE EHAM-EGKK
Flight info
| Callsign | EJU82PE |
|---|---|
| Flight time | 0h 53m |
| Altitude | 23000 |
| Route | WOODY N872 NIK/N0411F240 L610 TEBRA |
| Aircraft | A20N/M-SDE2E3FGHIRWXY/LB1 |
Departure
| Time | 2026-05-06 17:58 |
|---|---|
| Airport | Amsterdam Airport Schiphol (EHAM) |
Arrival
| Time | 2026-05-06 18:52 |
|---|---|
| Airport | London Gatwick Airport (EGKK) |
| Time | Latitude | Longitude | Altitude | Speed | Heading |
|---|---|---|---|---|---|
| 2026-05-06 17:32 | 52.31071 | 4.75567 | -1 ft | 0 kts | 148° |
| 2026-05-06 17:34 | 52.31066 | 4.75572 | -1 ft | 0 kts | 148° |
| 2026-05-06 17:46 | 52.31076 | 4.75562 | -2 ft | 4 kts | 151° |
| 2026-05-06 17:46 | 52.31100 | 4.75541 | -2 ft | 4 kts | 140° |
| 2026-05-06 17:46 | 52.31109 | 4.75518 | -2 ft | 2 kts | 65° |
| 2026-05-06 17:46 | 52.31096 | 4.75483 | -2 ft | 4 kts | 56° |
| 2026-05-06 17:47 | 52.31092 | 4.75471 | -2 ft | 1 kts | 58° |
| 2026-05-06 17:49 | 52.31096 | 4.75477 | -2 ft | 2 kts | 44° |
| 2026-05-06 17:49 | 52.31114 | 4.75491 | -2 ft | 4 kts | 18° |
| 2026-05-06 17:50 | 52.31150 | 4.75496 | -2 ft | 7 kts | 358° |
| 2026-05-06 17:50 | 52.31206 | 4.75491 | -2 ft | 9 kts | 356° |
| 2026-05-06 17:50 | 52.31279 | 4.75484 | -2 ft | 12 kts | 357° |
| 2026-05-06 17:50 | 52.31364 | 4.75478 | -2 ft | 12 kts | 357° |
| 2026-05-06 17:51 | 52.31421 | 4.75471 | -1 ft | 13 kts | 357° |
| 2026-05-06 17:51 | 52.31508 | 4.75376 | -2 ft | 14 kts | 278° |
| 2026-05-06 17:51 | 52.31504 | 4.75207 | -2 ft | 16 kts | 267° |
| 2026-05-06 17:51 | 52.31497 | 4.75005 | -1 ft | 19 kts | 267° |
| 2026-05-06 17:52 | 52.31489 | 4.74774 | -1 ft | 22 kts | 266° |
| 2026-05-06 17:52 | 52.31484 | 4.74604 | -1 ft | 23 kts | 268° |
| 2026-05-06 17:52 | 52.31475 | 4.74340 | -1 ft | 19 kts | 267° |
| 2026-05-06 17:52 | 52.31421 | 4.74159 | -1 ft | 20 kts | 208° |
| 2026-05-06 17:53 | 52.31284 | 4.74130 | -1 ft | 14 kts | 183° |
| 2026-05-06 17:53 | 52.31186 | 4.74121 | -1 ft | 15 kts | 183° |
| 2026-05-06 17:53 | 52.31084 | 4.74112 | -1 ft | 16 kts | 183° |
| 2026-05-06 17:53 | 52.30962 | 4.74100 | -1 ft | 19 kts | 183° |
| 2026-05-06 17:54 | 52.30822 | 4.74088 | -1 ft | 21 kts | 182° |
| 2026-05-06 17:54 | 52.30710 | 4.74080 | -1 ft | 15 kts | 183° |
| 2026-05-06 17:54 | 52.30628 | 4.74073 | -1 ft | 10 kts | 183° |
| 2026-05-06 17:54 | 52.30544 | 4.74064 | -1 ft | 14 kts | 184° |
| 2026-05-06 17:55 | 52.30439 | 4.74054 | -1 ft | 15 kts | 183° |
| 2026-05-06 17:55 | 52.30337 | 4.74017 | -1 ft | 15 kts | 201° |
| 2026-05-06 17:55 | 52.30259 | 4.73960 | -1 ft | 11 kts | 206° |
| 2026-05-06 17:55 | 52.30230 | 4.73928 | -2 ft | 0 kts | 218° |
| 2026-05-06 17:56 | 52.30225 | 4.73920 | -2 ft | 3 kts | 217° |
| 2026-05-06 17:56 | 52.30198 | 4.73881 | -2 ft | 7 kts | 231° |
| 2026-05-06 17:56 | 52.30189 | 4.73786 | -2 ft | 11 kts | 285° |
| 2026-05-06 17:57 | 52.30267 | 4.73743 | -4 ft | 15 kts | 0° |
| 2026-05-06 17:57 | 52.30447 | 4.73759 | -3 ft | 40 kts | 4° |
| 2026-05-06 17:57 | 52.30863 | 4.73801 | -1 ft | 87 kts | 2° |
| 2026-05-06 17:57 | 52.31656 | 4.73873 | -3 ft | 138 kts | 4° |
| 2026-05-06 17:58 | 52.32728 | 4.73955 | 218 ft | 159 kts | 5° |
| 2026-05-06 17:58 | 52.33820 | 4.74174 | 766 ft | 163 kts | 19° |
| 2026-05-06 17:58 | 52.34910 | 4.74880 | 1243 ft | 175 kts | 25° |
| 2026-05-06 17:58 | 52.36068 | 4.75812 | 1547 ft | 197 kts | 35° |
| 2026-05-06 17:59 | 52.37004 | 4.77526 | 2090 ft | 208 kts | 62° |
| 2026-05-06 17:59 | 52.37341 | 4.79835 | 2852 ft | 215 kts | 90° |
| 2026-05-06 17:59 | 52.37003 | 4.82250 | 3688 ft | 223 kts | 111° |
| 2026-05-06 17:59 | 52.36003 | 4.84228 | 4584 ft | 235 kts | 144° |
| 2026-05-06 18:00 | 52.34451 | 4.85091 | 5545 ft | 241 kts | 175° |
| 2026-05-06 18:00 | 52.32732 | 4.85112 | 6324 ft | 256 kts | 180° |
| 2026-05-06 18:00 | 52.30881 | 4.85010 | 6853 ft | 276 kts | 181° |
| 2026-05-06 18:00 | 52.28948 | 4.84898 | 7654 ft | 283 kts | 181° |
| 2026-05-06 18:01 | 52.26964 | 4.84814 | 8569 ft | 288 kts | 181° |
| 2026-05-06 18:01 | 52.24939 | 4.84755 | 9474 ft | 293 kts | 181° |
| 2026-05-06 18:01 | 52.22885 | 4.84710 | 10286 ft | 301 kts | 181° |
| 2026-05-06 18:01 | 52.20712 | 4.84667 | 10666 ft | 323 kts | 181° |
| 2026-05-06 18:02 | 52.18385 | 4.84620 | 11005 ft | 344 kts | 181° |
| 2026-05-06 18:02 | 52.15962 | 4.84573 | 11738 ft | 350 kts | 182° |
| 2026-05-06 18:02 | 52.13520 | 4.84528 | 12602 ft | 352 kts | 182° |
| 2026-05-06 18:02 | 52.11057 | 4.84481 | 13446 ft | 356 kts | 182° |
| 2026-05-06 18:03 | 52.08562 | 4.84432 | 14203 ft | 360 kts | 182° |
| 2026-05-06 18:03 | 52.06049 | 4.84381 | 14964 ft | 362 kts | 182° |
| 2026-05-06 18:03 | 52.03551 | 4.84184 | 15675 ft | 365 kts | 189° |
| 2026-05-06 18:03 | 52.01067 | 4.83305 | 16395 ft | 366 kts | 199° |
| 2026-05-06 18:04 | 51.98711 | 4.81727 | 17099 ft | 368 kts | 208° |
| 2026-05-06 18:04 | 51.96400 | 4.79881 | 17786 ft | 371 kts | 208° |
| 2026-05-06 18:04 | 51.94070 | 4.78037 | 18450 ft | 375 kts | 207° |
| 2026-05-06 18:04 | 51.91717 | 4.76187 | 19081 ft | 377 kts | 207° |
| 2026-05-06 18:05 | 51.89343 | 4.74329 | 19698 ft | 380 kts | 207° |
| 2026-05-06 18:05 | 51.86955 | 4.72464 | 20314 ft | 383 kts | 207° |
| 2026-05-06 18:05 | 51.84552 | 4.70588 | 20916 ft | 385 kts | 207° |
| 2026-05-06 18:05 | 51.82126 | 4.68698 | 21516 ft | 388 kts | 207° |
| 2026-05-06 18:06 | 51.79682 | 4.66796 | 22112 ft | 391 kts | 207° |
| 2026-05-06 18:06 | 51.77217 | 4.64878 | 22572 ft | 395 kts | 207° |
| 2026-05-06 18:06 | 51.74739 | 4.62954 | 22685 ft | 395 kts | 207° |
| 2026-05-06 18:06 | 51.72263 | 4.61034 | 22796 ft | 395 kts | 207° |
| 2026-05-06 18:07 | 51.69778 | 4.59109 | 22900 ft | 396 kts | 207° |
| 2026-05-06 18:07 | 51.67319 | 4.57206 | 22914 ft | 396 kts | 207° |
| 2026-05-06 18:07 | 51.64830 | 4.55283 | 22912 ft | 396 kts | 207° |
| 2026-05-06 18:07 | 51.62343 | 4.53363 | 22910 ft | 396 kts | 207° |
| 2026-05-06 18:08 | 51.59854 | 4.51444 | 22908 ft | 396 kts | 207° |
| 2026-05-06 18:08 | 51.57363 | 4.49525 | 22909 ft | 397 kts | 207° |
| 2026-05-06 18:08 | 51.54869 | 4.47608 | 22907 ft | 397 kts | 207° |
| 2026-05-06 18:08 | 51.52381 | 4.45696 | 22911 ft | 396 kts | 207° |
| 2026-05-06 18:09 | 51.49901 | 4.43794 | 22911 ft | 396 kts | 207° |
| 2026-05-06 18:09 | 51.47440 | 4.41907 | 22911 ft | 397 kts | 207° |
| 2026-05-06 18:09 | 51.44938 | 4.39993 | 22912 ft | 397 kts | 207° |
| 2026-05-06 18:09 | 51.42440 | 4.38083 | 22912 ft | 397 kts | 207° |
| 2026-05-06 18:10 | 51.39944 | 4.36177 | 22909 ft | 397 kts | 207° |
| 2026-05-06 18:10 | 51.37439 | 4.34269 | 22910 ft | 398 kts | 207° |
| 2026-05-06 18:10 | 51.34937 | 4.32367 | 22911 ft | 398 kts | 207° |
| 2026-05-06 18:10 | 51.32437 | 4.30470 | 22909 ft | 398 kts | 206° |
| 2026-05-06 18:11 | 51.29931 | 4.28569 | 22909 ft | 398 kts | 206° |
| 2026-05-06 18:11 | 51.27427 | 4.26668 | 22930 ft | 398 kts | 206° |
| 2026-05-06 18:11 | 51.24923 | 4.24768 | 22932 ft | 398 kts | 206° |
| 2026-05-06 18:11 | 51.22483 | 4.22787 | 22932 ft | 397 kts | 213° |
| 2026-05-06 18:12 | 51.20325 | 4.20069 | 22929 ft | 396 kts | 227° |
| 2026-05-06 18:12 | 51.18696 | 4.16539 | 22924 ft | 394 kts | 243° |
| 2026-05-06 18:12 | 51.17762 | 4.12446 | 22923 ft | 394 kts | 259° |
| 2026-05-06 18:12 | 51.17594 | 4.08104 | 22917 ft | 393 kts | 275° |
| 2026-05-06 18:13 | 51.18096 | 4.03824 | 22911 ft | 394 kts | 282° |
| 2026-05-06 18:13 | 51.18704 | 3.99571 | 22908 ft | 394 kts | 282° |
| 2026-05-06 18:13 | 51.19315 | 3.95294 | 23049 ft | 397 kts | 282° |
| 2026-05-06 18:13 | 51.19920 | 3.90993 | 23502 ft | 399 kts | 282° |
| 2026-05-06 18:14 | 51.20518 | 3.86685 | 23608 ft | 397 kts | 282° |
| 2026-05-06 18:14 | 51.21110 | 3.82382 | 23706 ft | 397 kts | 282° |
| 2026-05-06 18:14 | 51.21698 | 3.78080 | 23803 ft | 398 kts | 282° |
| 2026-05-06 18:14 | 51.22286 | 3.73762 | 23898 ft | 398 kts | 282° |
| 2026-05-06 18:15 | 51.22872 | 3.69445 | 23906 ft | 398 kts | 281° |
| 2026-05-06 18:15 | 51.23449 | 3.65181 | 23905 ft | 398 kts | 281° |
| 2026-05-06 18:15 | 51.24039 | 3.60809 | 23908 ft | 398 kts | 281° |
| 2026-05-06 18:15 | 51.24613 | 3.56545 | 23910 ft | 398 kts | 281° |
| 2026-05-06 18:16 | 51.25192 | 3.52236 | 23914 ft | 397 kts | 281° |
| 2026-05-06 18:16 | 51.25772 | 3.47902 | 23915 ft | 397 kts | 281° |
| 2026-05-06 18:16 | 51.26348 | 3.43583 | 23919 ft | 397 kts | 281° |
| 2026-05-06 18:16 | 51.26922 | 3.39264 | 23924 ft | 397 kts | 281° |
| 2026-05-06 18:17 | 51.27494 | 3.34950 | 23931 ft | 396 kts | 281° |
| 2026-05-06 18:17 | 51.28057 | 3.30694 | 23936 ft | 396 kts | 281° |
| 2026-05-06 18:17 | 51.28625 | 3.26389 | 23936 ft | 396 kts | 281° |
| 2026-05-06 18:17 | 51.29191 | 3.22085 | 23942 ft | 395 kts | 281° |
| 2026-05-06 18:18 | 51.29755 | 3.17777 | 23947 ft | 396 kts | 280° |
| 2026-05-06 18:18 | 51.30316 | 3.13476 | 23953 ft | 396 kts | 280° |
| 2026-05-06 18:18 | 51.30875 | 3.09170 | 23954 ft | 396 kts | 281° |
| 2026-05-06 18:18 | 51.31434 | 3.04863 | 23958 ft | 395 kts | 280° |
| 2026-05-06 18:19 | 51.31992 | 3.00553 | 23960 ft | 395 kts | 280° |
| 2026-05-06 18:19 | 51.32548 | 2.96240 | 23961 ft | 396 kts | 280° |
| 2026-05-06 18:19 | 51.33095 | 2.91979 | 23963 ft | 395 kts | 280° |
| 2026-05-06 18:19 | 51.33654 | 2.87622 | 23961 ft | 395 kts | 280° |
| 2026-05-06 18:20 | 51.34198 | 2.83360 | 23961 ft | 396 kts | 280° |
| 2026-05-06 18:20 | 51.34747 | 2.79050 | 23959 ft | 395 kts | 280° |
| 2026-05-06 18:20 | 51.35297 | 2.74730 | 23961 ft | 395 kts | 280° |
| 2026-05-06 18:20 | 51.35837 | 2.70418 | 23959 ft | 396 kts | 280° |
| 2026-05-06 18:21 | 51.36369 | 2.66101 | 23960 ft | 396 kts | 280° |
| 2026-05-06 18:21 | 51.36897 | 2.61777 | 23957 ft | 396 kts | 280° |
| 2026-05-06 18:21 | 51.37424 | 2.57462 | 23958 ft | 395 kts | 280° |
| 2026-05-06 18:21 | 51.37950 | 2.53150 | 23959 ft | 396 kts | 280° |
| 2026-05-06 18:22 | 51.38477 | 2.48817 | 23947 ft | 395 kts | 280° |
| 2026-05-06 18:22 | 51.39000 | 2.44515 | 23739 ft | 393 kts | 280° |
| 2026-05-06 18:22 | 51.39511 | 2.40287 | 23295 ft | 390 kts | 280° |
| 2026-05-06 18:22 | 51.40021 | 2.36058 | 23160 ft | 386 kts | 280° |
| 2026-05-06 18:23 | 51.40533 | 2.31801 | 23051 ft | 391 kts | 280° |
| 2026-05-06 18:23 | 51.41047 | 2.27513 | 22958 ft | 390 kts | 280° |
| 2026-05-06 18:23 | 51.41558 | 2.23258 | 22943 ft | 388 kts | 280° |
| 2026-05-06 18:23 | 51.42076 | 2.19021 | 22662 ft | 386 kts | 280° |
| 2026-05-06 18:24 | 51.42593 | 2.14802 | 22166 ft | 384 kts | 280° |
| 2026-05-06 18:24 | 51.43105 | 2.10619 | 21604 ft | 381 kts | 280° |
| 2026-05-06 18:24 | 51.43610 | 2.06466 | 21011 ft | 378 kts | 280° |
| 2026-05-06 18:24 | 51.44109 | 2.02338 | 20425 ft | 375 kts | 280° |
| 2026-05-06 18:25 | 51.44596 | 1.98298 | 19868 ft | 372 kts | 280° |
| 2026-05-06 18:25 | 51.45077 | 1.94240 | 19318 ft | 369 kts | 280° |
| 2026-05-06 18:25 | 51.45550 | 1.90214 | 18765 ft | 366 kts | 280° |
| 2026-05-06 18:25 | 51.46017 | 1.86222 | 18220 ft | 363 kts | 280° |
| 2026-05-06 18:26 | 51.46478 | 1.82256 | 17626 ft | 360 kts | 280° |
| 2026-05-06 18:26 | 51.46933 | 1.78312 | 17030 ft | 357 kts | 280° |
| 2026-05-06 18:26 | 51.47382 | 1.74414 | 16465 ft | 354 kts | 280° |
| 2026-05-06 18:26 | 51.47510 | 1.70503 | 15882 ft | 352 kts | 263° |
| 2026-05-06 18:27 | 51.47078 | 1.66640 | 15323 ft | 350 kts | 259° |
| 2026-05-06 18:27 | 51.46587 | 1.62834 | 14773 ft | 348 kts | 259° |
| 2026-05-06 18:27 | 51.46098 | 1.59060 | 14339 ft | 342 kts | 259° |
| 2026-05-06 18:27 | 51.45627 | 1.55340 | 14226 ft | 345 kts | 259° |
| 2026-05-06 18:28 | 51.45155 | 1.51539 | 14121 ft | 347 kts | 259° |
| 2026-05-06 18:28 | 51.44689 | 1.47753 | 14025 ft | 345 kts | 259° |
| 2026-05-06 18:28 | 51.44227 | 1.43984 | 13973 ft | 345 kts | 259° |
| 2026-05-06 18:28 | 51.43661 | 1.40239 | 13972 ft | 346 kts | 250° |
| 2026-05-06 18:29 | 51.42487 | 1.36874 | 13974 ft | 349 kts | 232° |
| 2026-05-06 18:29 | 51.40738 | 1.34242 | 13983 ft | 352 kts | 218° |
| 2026-05-06 18:29 | 51.38762 | 1.31916 | 13971 ft | 352 kts | 218° |
| 2026-05-06 18:29 | 51.36787 | 1.29595 | 13973 ft | 352 kts | 218° |
| 2026-05-06 18:30 | 51.34810 | 1.27266 | 13983 ft | 352 kts | 218° |
| 2026-05-06 18:30 | 51.32836 | 1.24939 | 13971 ft | 352 kts | 218° |
| 2026-05-06 18:30 | 51.30864 | 1.22613 | 13972 ft | 352 kts | 218° |
| 2026-05-06 18:30 | 51.28891 | 1.20287 | 13968 ft | 352 kts | 218° |
| 2026-05-06 18:31 | 51.26940 | 1.17989 | 13973 ft | 352 kts | 218° |
| 2026-05-06 18:31 | 51.24968 | 1.15669 | 13973 ft | 352 kts | 218° |
| 2026-05-06 18:31 | 51.22994 | 1.13348 | 13973 ft | 353 kts | 218° |
| 2026-05-06 18:31 | 51.21016 | 1.11025 | 13976 ft | 352 kts | 218° |
| 2026-05-06 18:32 | 51.19036 | 1.08702 | 13979 ft | 353 kts | 218° |
| 2026-05-06 18:32 | 51.17057 | 1.06383 | 13987 ft | 353 kts | 218° |
| 2026-05-06 18:32 | 51.15227 | 1.03815 | 13995 ft | 350 kts | 233° |
| 2026-05-06 18:32 | 51.14035 | 1.00455 | 13995 ft | 348 kts | 248° |
| 2026-05-06 18:33 | 51.13108 | 0.96888 | 13980 ft | 348 kts | 249° |
| 2026-05-06 18:33 | 51.12203 | 0.93318 | 13993 ft | 348 kts | 249° |
| 2026-05-06 18:33 | 51.11293 | 0.89739 | 13988 ft | 348 kts | 249° |
| 2026-05-06 18:33 | 51.10377 | 0.86170 | 13993 ft | 348 kts | 249° |
| 2026-05-06 18:34 | 51.09455 | 0.82616 | 13969 ft | 347 kts | 249° |
| 2026-05-06 18:34 | 51.08544 | 0.79119 | 13765 ft | 345 kts | 249° |
| 2026-05-06 18:34 | 51.07623 | 0.75593 | 13311 ft | 343 kts | 249° |
| 2026-05-06 18:34 | 51.06708 | 0.72103 | 12753 ft | 341 kts | 249° |
| 2026-05-06 18:35 | 51.05797 | 0.68629 | 12197 ft | 340 kts | 249° |
| 2026-05-06 18:35 | 51.04885 | 0.65155 | 11541 ft | 340 kts | 249° |
| 2026-05-06 18:35 | 51.03971 | 0.61679 | 10914 ft | 341 kts | 249° |
| 2026-05-06 18:35 | 51.03058 | 0.58215 | 10471 ft | 337 kts | 249° |
| 2026-05-06 18:36 | 51.02467 | 0.55974 | 10335 ft | 328 kts | 249° |
| 2026-05-06 18:36 | 51.01591 | 0.52659 | 9931 ft | 323 kts | 249° |
| 2026-05-06 18:36 | 51.00717 | 0.49351 | 9281 ft | 326 kts | 249° |
| 2026-05-06 18:36 | 50.99960 | 0.45952 | 8608 ft | 326 kts | 261° |
| 2026-05-06 18:37 | 50.99925 | 0.42383 | 7971 ft | 325 kts | 276° |
| 2026-05-06 18:37 | 51.00124 | 0.38836 | 7411 ft | 324 kts | 276° |
| 2026-05-06 18:37 | 51.00326 | 0.35344 | 7237 ft | 311 kts | 276° |
| 2026-05-06 18:37 | 51.00517 | 0.32045 | 7103 ft | 297 kts | 276° |
| 2026-05-06 18:38 | 51.00702 | 0.28850 | 6987 ft | 284 kts | 276° |
| 2026-05-06 18:38 | 51.00879 | 0.25822 | 6972 ft | 268 kts | 276° |
| 2026-05-06 18:38 | 51.01052 | 0.22851 | 6972 ft | 273 kts | 276° |
| 2026-05-06 18:38 | 51.01224 | 0.19860 | 6971 ft | 271 kts | 276° |
| 2026-05-06 18:39 | 51.01397 | 0.16885 | 6918 ft | 269 kts | 276° |
| 2026-05-06 18:39 | 51.01570 | 0.13928 | 6661 ft | 268 kts | 276° |
| 2026-05-06 18:39 | 51.01742 | 0.11044 | 6580 ft | 257 kts | 276° |
| 2026-05-06 18:40 | 51.02068 | 0.05657 | 6307 ft | 235 kts | 276° |
| 2026-05-06 18:40 | 51.02224 | 0.03078 | 5914 ft | 234 kts | 276° |
| 2026-05-06 18:40 | 51.02376 | 0.00515 | 5545 ft | 233 kts | 276° |
| 2026-05-06 18:40 | 51.02524 | -0.02011 | 5187 ft | 231 kts | 276° |
| 2026-05-06 18:41 | 51.02653 | -0.04546 | 4828 ft | 230 kts | 273° |
| 2026-05-06 18:41 | 51.02674 | -0.07084 | 4442 ft | 230 kts | 271° |
| 2026-05-06 18:41 | 51.02667 | -0.09617 | 4137 ft | 227 kts | 271° |
| 2026-05-06 18:41 | 51.02650 | -0.12130 | 4030 ft | 231 kts | 271° |
| 2026-05-06 18:42 | 51.02632 | -0.14675 | 4001 ft | 230 kts | 271° |
| 2026-05-06 18:42 | 51.02611 | -0.17217 | 3998 ft | 229 kts | 271° |
| 2026-05-06 18:42 | 51.02593 | -0.19754 | 3999 ft | 230 kts | 271° |
| 2026-05-06 18:42 | 51.02570 | -0.22280 | 3942 ft | 227 kts | 271° |
| 2026-05-06 18:43 | 51.02543 | -0.24794 | 3635 ft | 227 kts | 271° |
| 2026-05-06 18:43 | 51.02512 | -0.27308 | 3264 ft | 228 kts | 271° |
| 2026-05-06 18:43 | 51.02476 | -0.29809 | 3053 ft | 227 kts | 271° |
| 2026-05-06 18:43 | 51.02441 | -0.32304 | 3004 ft | 228 kts | 271° |
| 2026-05-06 18:44 | 51.02402 | -0.34828 | 2999 ft | 228 kts | 270° |
| 2026-05-06 18:44 | 51.02371 | -0.37308 | 2995 ft | 218 kts | 271° |
| 2026-05-06 18:44 | 51.02338 | -0.39631 | 2995 ft | 203 kts | 271° |
| 2026-05-06 18:44 | 51.02300 | -0.41783 | 3021 ft | 185 kts | 270° |
| 2026-05-06 18:45 | 51.02263 | -0.43821 | 3005 ft | 190 kts | 271° |
| 2026-05-06 18:45 | 51.02223 | -0.45901 | 2999 ft | 185 kts | 271° |
| 2026-05-06 18:45 | 51.02236 | -0.47956 | 2991 ft | 186 kts | 284° |
| 2026-05-06 18:45 | 51.02875 | -0.49643 | 2999 ft | 181 kts | 324° |
| 2026-05-06 18:46 | 51.04002 | -0.50482 | 2999 ft | 179 kts | 341° |
| 2026-05-06 18:46 | 51.05172 | -0.51169 | 2999 ft | 179 kts | 341° |
| 2026-05-06 18:46 | 51.06367 | -0.51651 | 2995 ft | 177 kts | 2° |
| 2026-05-06 18:46 | 51.07473 | -0.50928 | 3000 ft | 179 kts | 42° |
| 2026-05-06 18:47 | 51.08274 | -0.49376 | 3000 ft | 182 kts | 51° |
| 2026-05-06 18:47 | 51.09036 | -0.47784 | 3002 ft | 180 kts | 51° |
| 2026-05-06 18:47 | 51.09799 | -0.46198 | 3001 ft | 180 kts | 51° |
| 2026-05-06 18:47 | 51.10559 | -0.44607 | 3000 ft | 181 kts | 51° |
| 2026-05-06 18:48 | 51.11250 | -0.42937 | 3002 ft | 183 kts | 60° |
| 2026-05-06 18:48 | 51.11724 | -0.41050 | 2862 ft | 184 kts | 70° |
| 2026-05-06 18:48 | 51.12045 | -0.39086 | 2610 ft | 183 kts | 75° |
| 2026-05-06 18:48 | 51.12314 | -0.37123 | 2350 ft | 178 kts | 75° |
| 2026-05-06 18:49 | 51.12574 | -0.35245 | 2121 ft | 169 kts | 75° |
| 2026-05-06 18:49 | 51.12816 | -0.33495 | 1888 ft | 156 kts | 74° |
| 2026-05-06 18:49 | 51.13057 | -0.31763 | 1694 ft | 161 kts | 74° |
| 2026-05-06 18:49 | 51.13291 | -0.30063 | 1469 ft | 159 kts | 75° |
| 2026-05-06 18:50 | 51.13519 | -0.28395 | 1239 ft | 146 kts | 75° |
| 2026-05-06 18:50 | 51.13726 | -0.26897 | 1028 ft | 132 kts | 74° |
| 2026-05-06 18:50 | 51.13918 | -0.25512 | 853 ft | 126 kts | 74° |
| 2026-05-06 18:50 | 51.14108 | -0.24139 | 676 ft | 127 kts | 75° |
| 2026-05-06 18:51 | 51.14299 | -0.22754 | 500 ft | 128 kts | 76° |
| 2026-05-06 18:51 | 51.14487 | -0.21400 | 312 ft | 124 kts | 77° |
| 2026-05-06 18:51 | 51.14676 | -0.20084 | 209 ft | 115 kts | 76° |
| 2026-05-06 18:51 | 51.14816 | -0.19083 | 213 ft | 73 kts | 78° |
| 2026-05-06 18:52 | 51.14883 | -0.18643 | 212 ft | 29 kts | 60° |
| 2026-05-06 18:52 | 51.14974 | -0.18452 | 210 ft | 3 kts | 49° |
| 2026-05-06 18:52 | 51.14996 | -0.18412 | 208 ft | 6 kts | 49° |
| 2026-05-06 18:52 | 51.15030 | -0.18348 | 217 ft | 9 kts | 50° |
| 2026-05-06 18:53 | 51.15076 | -0.18256 | 211 ft | 12 kts | 52° |
| 2026-05-06 18:53 | 51.15127 | -0.18149 | 217 ft | 12 kts | 61° |
| 2026-05-06 18:53 | 51.15142 | -0.18016 | 208 ft | 13 kts | 81° |
| 2026-05-06 18:53 | 51.15160 | -0.17867 | 214 ft | 12 kts | 77° |
| 2026-05-06 18:54 | 51.15172 | -0.17780 | 206 ft | 9 kts | 77° |
| 2026-05-06 18:54 | 51.15187 | -0.17676 | 208 ft | 10 kts | 77° |
| 2026-05-06 18:54 | 51.15204 | -0.17559 | 213 ft | 12 kts | 77° |
| 2026-05-06 18:54 | 51.15217 | -0.17466 | 216 ft | 9 kts | 77° |
| 2026-05-06 18:55 | 51.15228 | -0.17387 | 210 ft | 7 kts | 74° |
| 2026-05-06 18:55 | 51.15269 | -0.17348 | 210 ft | 8 kts | 11° |
| 2026-05-06 18:55 | 51.15319 | -0.17365 | 214 ft | 9 kts | 347° |
| 2026-05-06 18:55 | 51.15377 | -0.17385 | 212 ft | 8 kts | 348° |
| 2026-05-06 18:56 | 51.15441 | -0.17405 | 213 ft | 3 kts | 348° |
| 2026-05-06 18:56 | 51.15452 | -0.17410 | 209 ft | 3 kts | 347° |
| 2026-05-06 18:56 | 51.15487 | -0.17422 | 204 ft | 0 kts | 347° |
| 2026-05-06 18:56 | 51.15494 | -0.17425 | 204 ft | 2 kts | 347° |
| 2026-05-06 18:57 | 51.15521 | -0.17441 | 210 ft | 6 kts | 327° |
| 2026-05-06 18:57 | 51.15539 | -0.17489 | 207 ft | 5 kts | 290° |
| 2026-05-06 18:57 | 51.15569 | -0.17536 | 208 ft | 4 kts | 328° |
| 2026-05-06 18:57 | 51.15591 | -0.17557 | 208 ft | 3 kts | 329° |
| 2026-05-06 18:58 | 51.15598 | -0.17563 | 206 ft | 0 kts | 329° |